sensor_id;sensor_type;location;lat;lon;timestamp;pressure;altitude;pressure_sealevel;temperature;humidity
33506;BME280;19843;51.040;13.782;2023-07-20T00:02:20;99880.50;;;17.78;100.00
33506;BME280;19843;51.040;13.782;2023-07-20T00:04:48;99872.81;;;17.71;100.00
33506;BME280;19843;51.040;13.782;2023-07-20T00:07:15;99879.25;;;17.68;100.00
33506;BME280;19843;51.040;13.782;2023-07-20T00:09:44;99872.41;;;17.80;100.00
33506;BME280;19843;51.040;13.782;2023-07-20T00:12:11;99870.41;;;17.87;100.00
33506;BME280;19843;51.040;13.782;2023-07-20T00:14:39;99884.06;;;17.43;100.00
33506;BME280;19843;51.040;13.782;2023-07-20T00:17:06;99884.84;;;17.47;100.00
33506;BME280;19843;51.040;13.782;2023-07-20T00:19:34;99877.59;;;17.56;100.00
33506;BME280;19843;51.040;13.782;2023-07-20T00:22:02;99877.13;;;17.15;100.00
33506;BME280;19843;51.040;13.782;2023-07-20T00:24:30;99862.69;;;17.49;100.00
33506;BME280;19843;51.040;13.782;2023-07-20T00:27:00;99859.94;;;17.81;100.00
33506;BME280;19843;51.040;13.782;2023-07-20T00:29:29;99863.94;;;17.98;100.00
33506;BME280;19843;51.040;13.782;2023-07-20T00:31:56;99861.53;;;18.07;100.00
33506;BME280;19843;51.040;13.782;2023-07-20T00:34:24;99870.44;;;17.95;100.00
33506;BME280;19843;51.040;13.782;2023-07-20T00:36:52;99867.19;;;17.89;100.00
33506;BME280;19843;51.040;13.782;2023-07-20T00:39:19;99868.00;;;17.97;100.00
33506;BME280;19843;51.040;13.782;2023-07-20T00:41:47;99884.47;;;17.55;100.00
33506;BME280;19843;51.040;13.782;2023-07-20T00:44:16;99878.06;;;17.83;100.00
33506;BME280;19843;51.040;13.782;2023-07-20T00:46:43;99888.03;;;17.27;100.00
33506;BME280;19843;51.040;13.782;2023-07-20T00:49:11;99883.47;;;16.94;100.00
33506;BME280;19843;51.040;13.782;2023-07-20T00:51:38;99893.69;;;17.31;100.00
33506;BME280;19843;51.040;13.782;2023-07-20T00:54:06;99883.22;;;17.35;100.00
33506;BME280;19843;51.040;13.782;2023-07-20T00:56:34;99881.56;;;17.20;100.00
33506;BME280;19843;51.040;13.782;2023-07-20T00:59:02;99879.66;;;17.63;100.00
33506;BME280;19843;51.040;13.782;2023-07-20T01:01:32;99886.13;;;17.85;100.00
33506;BME280;19843;51.040;13.782;2023-07-20T01:04:00;99879.69;;;18.02;100.00
33506;BME280;19843;51.040;13.782;2023-07-20T01:06:34;99880.91;;;18.05;100.00
33506;BME280;19843;51.040;13.782;2023-07-20T01:09:10;99878.44;;;17.57;100.00
33506;BME280;19843;51.040;13.782;2023-07-20T01:11:43;99882.84;;;17.44;100.00
33506;BME280;19843;51.040;13.782;2023-07-20T01:14:11;99883.63;;;17.33;100.00
33506;BME280;19843;51.040;13.782;2023-07-20T01:16:40;99868.34;;;17.70;100.00
33506;BME280;19843;51.040;13.782;2023-07-20T01:19:08;99880.81;;;17.40;100.00
33506;BME280;19843;51.040;13.782;2023-07-20T01:21:45;99880.78;;;17.37;100.00
33506;BME280;19843;51.040;13.782;2023-07-20T01:24:51;99885.25;;;17.56;100.00
33506;BME280;19843;51.040;13.782;2023-07-20T01:30:51;99902.91;;;17.17;100.00
33506;BME280;19843;51.040;13.782;2023-07-20T01:33:23;99894.91;;;17.30;100.00
33506;BME280;19843;51.040;13.782;2023-07-20T01:35:56;99899.78;;;17.51;100.00
33506;BME280;19843;51.040;13.782;2023-07-20T01:38:25;99898.56;;;17.48;100.00
33506;BME280;19843;51.040;13.782;2023-07-20T01:40:53;99901.38;;;17.45;100.00
33506;BME280;19843;51.040;13.782;2023-07-20T01:43:21;99903.03;;;17.63;100.00
33506;BME280;19843;51.040;13.782;2023-07-20T01:45:49;99902.22;;;17.59;100.00
33506;BME280;19843;51.040;13.782;2023-07-20T01:48:16;99900.59;;;17.58;100.00
33506;BME280;19843;51.040;13.782;2023-07-20T01:50:45;99898.97;;;17.61;100.00
33506;BME280;19843;51.040;13.782;2023-07-20T01:53:13;99903.00;;;17.49;100.00
33506;BME280;19843;51.040;13.782;2023-07-20T01:55:40;99894.53;;;17.49;100.00
33506;BME280;19843;51.040;13.782;2023-07-20T01:58:08;99898.97;;;17.50;100.00
33506;BME280;19843;51.040;13.782;2023-07-20T02:00:37;99900.59;;;17.48;100.00
33506;BME280;19843;51.040;13.782;2023-07-20T02:03:05;99898.56;;;17.52;100.00
33506;BME280;19843;51.040;13.782;2023-07-20T02:05:33;99897.75;;;17.51;100.00
33506;BME280;19843;51.040;13.782;2023-07-20T02:08:02;99901.00;;;17.64;100.00
33506;BME280;19843;51.040;13.782;2023-07-20T02:10:29;99883.66;;;17.58;100.00
33506;BME280;19843;51.040;13.782;2023-07-20T02:12:57;99895.31;;;17.46;100.00
33506;BME280;19843;51.040;13.782;2023-07-20T02:15:24;99888.88;;;17.38;100.00
33506;BME280;19843;51.040;13.782;2023-07-20T02:17:52;99890.41;;;17.14;100.00
33506;BME280;19843;51.040;13.782;2023-07-20T02:20:19;99896.06;;;17.14;100.00
33506;BME280;19843;51.040;13.782;2023-07-20T02:22:47;99903.28;;;17.12;100.00
33506;BME280;19843;51.040;13.782;2023-07-20T02:25:16;99896.47;;;17.20;100.00
33506;BME280;19843;51.040;13.782;2023-07-20T02:27:44;99895.25;;;17.14;100.00
33506;BME280;19843;51.040;13.782;2023-07-20T02:30:11;99893.63;;;17.13;100.00
33506;BME280;19843;51.040;13.782;2023-07-20T02:32:39;99892.78;;;17.09;100.00
33506;BME280;19843;51.040;13.782;2023-07-20T02:35:12;99897.25;;;17.13;100.00
33506;BME280;19843;51.040;13.782;2023-07-20T02:37:39;99909.41;;;17.28;100.00
33506;BME280;19843;51.040;13.782;2023-07-20T02:40:08;99901.31;;;17.20;100.00
33506;BME280;19843;51.040;13.782;2023-07-20T02:42:37;99911.78;;;17.19;100.00
33506;BME280;19843;51.040;13.782;2023-07-20T02:45:05;99908.56;;;17.21;100.00
33506;BME280;19843;51.040;13.782;2023-07-20T02:47:33;99898.88;;;17.18;100.00
33506;BME280;19843;51.040;13.782;2023-07-20T02:50:01;99908.06;;;16.97;100.00
33506;BME280;19843;51.040;13.782;2023-07-20T02:52:29;99905.28;;;17.04;100.00
33506;BME280;19843;51.040;13.782;2023-07-20T02:54:56;99906.50;;;17.10;100.00
33506;BME280;19843;51.040;13.782;2023-07-20T02:57:24;99910.56;;;17.20;100.00
33506;BME280;19843;51.040;13.782;2023-07-20T02:59:53;99919.81;;;17.17;100.00
33506;BME280;19843;51.040;13.782;2023-07-20T03:02:21;99920.63;;;17.18;100.00
33506;BME280;19843;51.040;13.782;2023-07-20T03:04:48;99920.25;;;17.26;100.00
33506;BME280;19843;51.040;13.782;2023-07-20T03:07:16;99929.13;;;17.25;100.00
33506;BME280;19843;51.040;13.782;2023-07-20T03:09:46;99926.34;;;17.28;100.00
33506;BME280;19843;51.040;13.782;2023-07-20T03:12:14;99931.16;;;17.31;100.00
33506;BME280;19843;51.040;13.782;2023-07-20T03:14:41;99928.72;;;17.19;100.00
33506;BME280;19843;51.040;13.782;2023-07-20T03:17:10;99931.50;;;17.12;100.00
33506;BME280;19843;51.040;13.782;2023-07-20T03:19:38;99935.94;;;17.09;100.00
33506;BME280;19843;51.040;13.782;2023-07-20T03:22:05;99940.72;;;17.02;100.00
33506;BME280;19843;51.040;13.782;2023-07-20T03:24:33;99935.03;;;16.95;100.00
33506;BME280;19843;51.040;13.782;2023-07-20T03:27:01;99941.44;;;16.88;100.00
33506;BME280;19843;51.040;13.782;2023-07-20T03:29:28;99937.75;;;16.73;100.00
33506;BME280;19843;51.040;13.782;2023-07-20T03:31:57;99939.22;;;16.60;100.00
33506;BME280;19843;51.040;13.782;2023-07-20T03:34:27;99945.03;;;16.81;100.00
33506;BME280;19843;51.040;13.782;2023-07-20T03:36:54;99946.34;;;17.02;100.00
33506;BME280;19843;51.040;13.782;2023-07-20T03:39:22;99936.72;;;17.13;100.00
33506;BME280;19843;51.040;13.782;2023-07-20T03:41:50;99939.13;;;17.04;100.00
33506;BME280;19843;51.040;13.782;2023-07-20T03:44:17;99946.88;;;17.29;100.00
33506;BME280;19843;51.040;13.782;2023-07-20T03:46:45;99936.00;;;17.34;100.00
33506;BME280;19843;51.040;13.782;2023-07-20T03:49:12;99934.78;;;17.28;100.00
33506;BME280;19843;51.040;13.782;2023-07-20T03:51:41;99933.53;;;17.22;100.00
33506;BME280;19843;51.040;13.782;2023-07-20T03:54:09;99931.56;;;17.37;100.00
33506;BME280;19843;51.040;13.782;2023-07-20T03:56:36;99937.66;;;17.46;100.00
33506;BME280;19843;51.040;13.782;2023-07-20T03:59:04;99938.84;;;17.45;100.00
33506;BME280;19843;51.040;13.782;2023-07-20T04:01:32;99938.09;;;17.62;99.70
33506;BME280;19843;51.040;13.782;2023-07-20T04:04:05;99944.59;;;17.74;100.00
33506;BME280;19843;51.040;13.782;2023-07-20T04:06:33;99948.88;;;17.32;100.00
33506;BME280;19843;51.040;13.782;2023-07-20T04:09:03;99951.81;;;17.64;100.00
33506;BME280;19843;51.040;13.782;2023-07-20T04:11:31;99943.03;;;17.90;99.68
33506;BME280;19843;51.040;13.782;2023-07-20T04:13:58;99951.91;;;18.07;98.45
33506;BME280;19843;51.040;13.782;2023-07-20T04:16:26;99942.88;;;17.33;98.57
33506;BME280;19843;51.040;13.782;2023-07-20T04:18:54;99945.44;;;17.81;97.97
33506;BME280;19843;51.040;13.782;2023-07-20T04:21:23;99948.69;;;18.12;96.21
33506;BME280;19843;51.040;13.782;2023-07-20T04:23:50;99946.66;;;18.45;92.76
33506;BME280;19843;51.040;13.782;2023-07-20T04:26:19;99944.19;;;18.64;92.72
33506;BME280;19843;51.040;13.782;2023-07-20T04:28:47;99941.41;;;18.43;91.76
33506;BME280;19843;51.040;13.782;2023-07-20T04:31:16;99943.34;;;19.00;88.62
33506;BME280;19843;51.040;13.782;2023-07-20T04:33:44;99947.88;;;18.36;93.43
33506;BME280;19843;51.040;13.782;2023-07-20T04:36:12;99954.75;;;18.25;94.31
33506;BME280;19843;51.040;13.782;2023-07-20T04:38:42;99945.97;;;17.07;100.00
33506;BME280;19843;51.040;13.782;2023-07-20T04:41:10;99939.19;;;17.26;100.00
33506;BME280;19843;51.040;13.782;2023-07-20T04:43:42;99948.56;;;17.55;99.71
33506;BME280;19843;51.040;13.782;2023-07-20T04:46:10;99957.56;;;16.95;100.00
33506;BME280;19843;51.040;13.782;2023-07-20T04:48:38;99950.59;;;17.54;100.00
33506;BME280;19843;51.040;13.782;2023-07-20T04:51:07;99953.88;;;17.78;100.00
33506;BME280;19843;51.040;13.782;2023-07-20T04:53:34;99952.28;;;17.87;99.37
33506;BME280;19843;51.040;13.782;2023-07-20T04:56:02;99964.72;;;17.65;100.00
33506;BME280;19843;51.040;13.782;2023-07-20T04:58:30;99957.97;;;18.27;96.02
33506;BME280;19843;51.040;13.782;2023-07-20T05:00:58;99955.91;;;18.63;95.22
33506;BME280;19843;51.040;13.782;2023-07-20T05:03:26;99956.34;;;18.76;91.95
33506;BME280;19843;51.040;13.782;2023-07-20T05:05:54;99948.63;;;18.90;93.62
33506;BME280;19843;51.040;13.782;2023-07-20T05:08:22;99966.81;;;18.61;95.04
33506;BME280;19843;51.040;13.782;2023-07-20T05:10:49;99951.47;;;18.65;94.66
33506;BME280;19843;51.040;13.782;2023-07-20T05:13:17;99957.53;;;18.75;92.97
33506;BME280;19843;51.040;13.782;2023-07-20T05:15:44;99960.78;;;18.48;93.48
33506;BME280;19843;51.040;13.782;2023-07-20T05:18:13;99951.97;;;19.55;87.80
33506;BME280;19843;51.040;13.782;2023-07-20T05:20:46;99952.34;;;19.72;85.75
33506;BME280;19843;51.040;13.782;2023-07-20T05:23:13;99955.16;;;18.52;92.76
33506;BME280;19843;51.040;13.782;2023-07-20T05:25:41;99955.53;;;18.32;94.06
33506;BME280;19843;51.040;13.782;2023-07-20T05:28:09;99959.34;;;19.42;88.86
33506;BME280;19843;51.040;13.782;2023-07-20T05:30:37;99960.16;;;19.35;87.24
33506;BME280;19843;51.040;13.782;2023-07-20T05:33:05;99955.41;;;19.14;90.98
33506;BME280;19843;51.040;13.782;2023-07-20T05:35:33;99946.88;;;19.29;85.60
33506;BME280;19843;51.040;13.782;2023-07-20T05:38:03;99948.06;;;20.05;83.77
33506;BME280;19843;51.040;13.782;2023-07-20T05:40:32;99947.75;;;19.88;82.23
33506;BME280;19843;51.040;13.782;2023-07-20T05:43:00;99946.75;;;19.61;81.99
33506;BME280;19843;51.040;13.782;2023-07-20T05:45:27;99957.69;;;19.52;83.44
33506;BME280;19843;51.040;13.782;2023-07-20T05:47:55;99951.47;;;18.55;89.98
33506;BME280;19843;51.040;13.782;2023-07-20T05:50:22;99955.88;;;18.91;87.70
33506;BME280;19843;51.040;13.782;2023-07-20T05:52:53;99953.91;;;18.74;88.37
33506;BME280;19843;51.040;13.782;2023-07-20T05:55:21;99960.28;;;19.07;86.67
33506;BME280;19843;51.040;13.782;2023-07-20T05:57:48;99966.75;;;19.11;87.21
33506;BME280;19843;51.040;13.782;2023-07-20T06:00:17;99965.09;;;19.17;85.51
33506;BME280;19843;51.040;13.782;2023-07-20T06:02:45;99965.69;;;19.71;84.76
33506;BME280;19843;51.040;13.782;2023-07-20T06:05:14;99967.41;;;19.43;83.78
33506;BME280;19843;51.040;13.782;2023-07-20T06:07:42;99972.72;;;19.38;84.16
33506;BME280;19843;51.040;13.782;2023-07-20T06:10:10;99969.00;;;19.48;83.65
33506;BME280;19843;51.040;13.782;2023-07-20T06:12:38;99969.09;;;19.30;83.90
33506;BME280;19843;51.040;13.782;2023-07-20T06:15:24;99973.28;;;18.90;85.70
33506;BME280;19843;51.040;13.782;2023-07-20T06:17:54;99966.31;;;19.23;84.39
33506;BME280;19843;51.040;13.782;2023-07-20T06:20:22;99965.75;;;19.57;82.45
33506;BME280;19843;51.040;13.782;2023-07-20T06:22:50;99969.09;;;19.34;82.34
33506;BME280;19843;51.040;13.782;2023-07-20T06:25:19;99980.41;;;19.30;86.22
33506;BME280;19843;51.040;13.782;2023-07-20T06:27:49;99996.72;;;18.62;90.17
33506;BME280;19843;51.040;13.782;2023-07-20T06:30:17;100014.88;;;18.22;97.27
33506;BME280;19843;51.040;13.782;2023-07-20T06:32:44;100014.44;;;17.95;100.00
33506;BME280;19843;51.040;13.782;2023-07-20T06:35:12;100002.59;;;17.60;100.00
33506;BME280;19843;51.040;13.782;2023-07-20T06:37:40;99995.84;;;17.76;100.00
33506;BME280;19843;51.040;13.782;2023-07-20T06:40:08;100002.31;;;17.98;100.00
33506;BME280;19843;51.040;13.782;2023-07-20T06:42:40;100005.59;;;18.25;99.79
33506;BME280;19843;51.040;13.782;2023-07-20T06:45:11;100014.44;;;18.12;100.00
33506;BME280;19843;51.040;13.782;2023-07-20T06:47:39;100009.13;;;17.75;100.00
33506;BME280;19843;51.040;13.782;2023-07-20T06:50:07;100012.44;;;18.16;100.00
33506;BME280;19843;51.040;13.782;2023-07-20T06:52:35;100019.59;;;17.75;100.00
33506;BME280;19843;51.040;13.782;2023-07-20T06:55:03;100024.66;;;17.37;100.00
33506;BME280;19843;51.040;13.782;2023-07-20T06:57:32;100021.69;;;17.92;100.00
33506;BME280;19843;51.040;13.782;2023-07-20T07:00:01;100030.13;;;17.81;100.00
33506;BME280;19843;51.040;13.782;2023-07-20T07:02:30;100016.34;;;17.73;100.00
33506;BME280;19843;51.040;13.782;2023-07-20T07:04:58;100034.91;;;17.66;100.00
33506;BME280;19843;51.040;13.782;2023-07-20T07:07:44;100024.47;;;17.78;100.00
33506;BME280;19843;51.040;13.782;2023-07-20T07:10:11;100033.00;;;18.03;100.00
33506;BME280;19843;51.040;13.782;2023-07-20T07:12:40;100027.75;;;17.90;98.24
33506;BME280;19843;51.040;13.782;2023-07-20T07:15:10;100026.03;;;17.68;96.78
33506;BME280;19843;51.040;13.782;2023-07-20T07:17:38;100034.66;;;18.25;97.11
33506;BME280;19843;51.040;13.782;2023-07-20T07:20:07;100023.78;;;18.52;96.15
33506;BME280;19843;51.040;13.782;2023-07-20T07:22:45;100029.00;;;18.47;94.62
33506;BME280;19843;51.040;13.782;2023-07-20T07:25:13;100037.06;;;18.20;100.00
33506;BME280;19843;51.040;13.782;2023-07-20T07:27:48;100023.34;;;18.32;100.00
33506;BME280;19843;51.040;13.782;2023-07-20T07:30:17;100030.63;;;18.48;97.98
33506;BME280;19843;51.040;13.782;2023-07-20T07:32:45;100031.03;;;18.75;97.98
33506;BME280;19843;51.040;13.782;2023-07-20T07:35:13;100022.38;;;19.46;94.38
33506;BME280;19843;51.040;13.782;2023-07-20T07:37:42;100020.44;;;19.25;94.32
33506;BME280;19843;51.040;13.782;2023-07-20T07:40:30;100024.41;;;19.45;97.41
33506;BME280;19843;51.040;13.782;2023-07-20T07:42:57;100031.66;;;19.54;95.93
33506;BME280;19843;51.040;13.782;2023-07-20T07:45:26;100027.13;;;19.78;97.68
33506;BME280;19843;51.040;13.782;2023-07-20T07:47:54;100029.38;;;19.16;95.25
33506;BME280;19843;51.040;13.782;2023-07-20T07:50:22;100032.94;;;19.38;95.63
33506;BME280;19843;51.040;13.782;2023-07-20T07:52:49;100029.84;;;18.83;98.00
33506;BME280;19843;51.040;13.782;2023-07-20T07:55:17;100039.00;;;19.40;97.20
33506;BME280;19843;51.040;13.782;2023-07-20T07:57:44;100035.97;;;19.90;89.35
33506;BME280;19843;51.040;13.782;2023-07-20T08:00:14;100036.81;;;20.46;89.89
33506;BME280;19843;51.040;13.782;2023-07-20T08:02:46;100025.72;;;20.11;85.54
33506;BME280;19843;51.040;13.782;2023-07-20T08:05:15;100026.63;;;19.93;87.31
33506;BME280;19843;51.040;13.782;2023-07-20T08:07:43;100015.13;;;20.22;85.24
33506;BME280;19843;51.040;13.782;2023-07-20T08:10:13;100017.91;;;20.33;82.92
33506;BME280;19843;51.040;13.782;2023-07-20T08:12:41;100026.91;;;19.26;79.79
33506;BME280;19843;51.040;13.782;2023-07-20T08:15:11;100025.53;;;19.73;84.99
33506;BME280;19843;51.040;13.782;2023-07-20T08:17:38;100026.91;;;19.29;90.33
33506;BME280;19843;51.040;13.782;2023-07-20T08:20:09;100034.28;;;18.95;91.53
33506;BME280;19843;51.040;13.782;2023-07-20T08:22:38;100029.97;;;19.81;89.33
33506;BME280;19843;51.040;13.782;2023-07-20T08:25:07;100030.53;;;19.23;89.50
33506;BME280;19843;51.040;13.782;2023-07-20T08:27:35;100027.00;;;18.86;90.49
33506;BME280;19843;51.040;13.782;2023-07-20T08:30:04;100031.31;;;19.41;91.24
33506;BME280;19843;51.040;13.782;2023-07-20T08:32:32;100025.09;;;19.78;87.43
33506;BME280;19843;51.040;13.782;2023-07-20T08:35:00;100021.69;;;20.67;90.54
33506;BME280;19843;51.040;13.782;2023-07-20T08:37:29;100029.72;;;19.33;87.99
33506;BME280;19843;51.040;13.782;2023-07-20T08:39:57;100026.44;;;19.45;87.52
33506;BME280;19843;51.040;13.782;2023-07-20T08:42:25;100033.81;;;19.14;88.85
33506;BME280;19843;51.040;13.782;2023-07-20T08:44:54;100027.72;;;19.23;87.93
33506;BME280;19843;51.040;13.782;2023-07-20T08:47:25;100029.78;;;20.10;84.24
33506;BME280;19843;51.040;13.782;2023-07-20T08:49:54;100028.69;;;20.52;81.57
33506;BME280;19843;51.040;13.782;2023-07-20T08:52:22;100023.75;;;21.05;77.10
33506;BME280;19843;51.040;13.782;2023-07-20T08:54:51;100029.03;;;20.61;73.68
33506;BME280;19843;51.040;13.782;2023-07-20T08:57:21;100027.84;;;21.41;72.66
33506;BME280;19843;51.040;13.782;2023-07-20T08:59:49;100028.22;;;21.02;72.11
33506;BME280;19843;51.040;13.782;2023-07-20T09:02:22;100031.03;;;21.06;72.66
33506;BME280;19843;51.040;13.782;2023-07-20T09:04:52;100033.06;;;21.05;75.60
33506;BME280;19843;51.040;13.782;2023-07-20T09:07:20;100033.22;;;21.29;72.93
33506;BME280;19843;51.040;13.782;2023-07-20T09:10:13;100032.56;;;20.73;73.61
33506;BME280;19843;51.040;13.782;2023-07-20T09:12:41;100038.22;;;21.17;73.11
33506;BME280;19843;51.040;13.782;2023-07-20T09:15:11;100032.78;;;20.92;72.09
33506;BME280;19843;51.040;13.782;2023-07-20T09:17:39;100024.69;;;21.66;69.50
33506;BME280;19843;51.040;13.782;2023-07-20T09:20:08;100030.69;;;22.80;65.26
33506;BME280;19843;51.040;13.782;2023-07-20T09:22:38;100021.63;;;22.38;64.17
33506;BME280;19843;51.040;13.782;2023-07-20T09:25:07;100020.13;;;22.81;64.71
33506;BME280;19843;51.040;13.782;2023-07-20T09:27:37;100022.22;;;21.99;68.12
33506;BME280;19843;51.040;13.782;2023-07-20T09:30:06;100019.47;;;21.61;62.68
33506;BME280;19843;51.040;13.782;2023-07-20T09:32:38;100032.28;;;21.73;66.41
33506;BME280;19843;51.040;13.782;2023-07-20T09:35:21;100026.28;;;21.37;67.44
33506;BME280;19843;51.040;13.782;2023-07-20T09:37:54;100015.44;;;20.83;69.82
33506;BME280;19843;51.040;13.782;2023-07-20T09:40:26;100019.28;;;21.76;67.05
33506;BME280;19843;51.040;13.782;2023-07-20T09:42:59;100026.34;;;21.26;66.78
33506;BME280;19843;51.040;13.782;2023-07-20T09:45:30;100028.53;;;22.10;63.55
33506;BME280;19843;51.040;13.782;2023-07-20T09:48:04;100033.84;;;22.08;62.46
33506;BME280;19843;51.040;13.782;2023-07-20T09:50:39;100032.34;;;22.54;62.56
33506;BME280;19843;51.040;13.782;2023-07-20T09:53:11;100026.25;;;22.29;65.40
33506;BME280;19843;51.040;13.782;2023-07-20T09:55:40;100024.88;;;21.52;64.26
33506;BME280;19843;51.040;13.782;2023-07-20T09:58:10;100024.22;;;21.71;62.35
33506;BME280;19843;51.040;13.782;2023-07-20T10:00:38;100030.97;;;21.81;63.32
33506;BME280;19843;51.040;13.782;2023-07-20T10:03:10;100035.00;;;21.15;64.12
33506;BME280;19843;51.040;13.782;2023-07-20T10:05:40;100049.59;;;20.73;66.52
33506;BME280;19843;51.040;13.782;2023-07-20T10:08:11;100054.16;;;20.59;68.93
33506;BME280;19843;51.040;13.782;2023-07-20T10:10:42;100049.78;;;19.85;76.43
33506;BME280;19843;51.040;13.782;2023-07-20T10:13:17;100059.16;;;19.64;77.91
33506;BME280;19843;51.040;13.782;2023-07-20T10:15:46;100062.28;;;19.91;81.54
33506;BME280;19843;51.040;13.782;2023-07-20T10:18:25;100060.53;;;18.95;83.16
33506;BME280;19843;51.040;13.782;2023-07-20T10:20:56;100057.28;;;19.04;85.23
33506;BME280;19843;51.040;13.782;2023-07-20T10:23:29;100057.16;;;19.50;84.47
33506;BME280;19843;51.040;13.782;2023-07-20T10:25:57;100059.53;;;19.73;89.01
33506;BME280;19843;51.040;13.782;2023-07-20T10:28:28;100060.25;;;19.91;83.96
33506;BME280;19843;51.040;13.782;2023-07-20T10:30:55;100051.56;;;20.24;80.11
33506;BME280;19843;51.040;13.782;2023-07-20T10:33:24;100058.47;;;19.17;80.86
33506;BME280;19843;51.040;13.782;2023-07-20T10:35:53;100050.81;;;18.42;83.93
33506;BME280;19843;51.040;13.782;2023-07-20T10:38:38;100037.47;;;19.11;83.58
33506;BME280;19843;51.040;13.782;2023-07-20T10:41:16;100050.81;;;19.10;85.39
33506;BME280;19843;51.040;13.782;2023-07-20T10:43:48;100052.97;;;19.90;82.90
33506;BME280;19843;51.040;13.782;2023-07-20T10:46:33;100046.28;;;20.22;81.18
33506;BME280;19843;51.040;13.782;2023-07-20T10:49:04;100044.66;;;20.28;83.50
33506;BME280;19843;51.040;13.782;2023-07-20T10:51:39;100040.19;;;21.58;75.95
33506;BME280;19843;51.040;13.782;2023-07-20T10:54:08;100031.38;;;21.49;75.05
33506;BME280;19843;51.040;13.782;2023-07-20T10:56:35;100035.75;;;20.78;75.82
33506;BME280;19843;51.040;13.782;2023-07-20T10:59:18;100038.50;;;21.64;74.07
33506;BME280;19843;51.040;13.782;2023-07-20T11:01:47;100044.38;;;20.67;75.28
33506;BME280;19843;51.040;13.782;2023-07-20T11:04:17;100047.19;;;20.67;74.91
33506;BME280;19843;51.040;13.782;2023-07-20T11:06:45;100036.72;;;21.06;74.43
33506;BME280;19843;51.040;13.782;2023-07-20T11:09:14;100040.16;;;20.34;77.60
33506;BME280;19843;51.040;13.782;2023-07-20T11:11:47;100047.41;;;20.35;82.23
33506;BME280;19843;51.040;13.782;2023-07-20T11:14:22;100040.72;;;20.67;80.67
33506;BME280;19843;51.040;13.782;2023-07-20T11:16:51;100043.25;;;19.91;81.90
33506;BME280;19843;51.040;13.782;2023-07-20T11:19:21;100041.38;;;20.30;79.74
33506;BME280;19843;51.040;13.782;2023-07-20T11:21:54;100023.03;;;20.52;74.99
33506;BME280;19843;51.040;13.782;2023-07-20T11:24:29;100031.41;;;21.08;72.01
33506;BME280;19843;51.040;13.782;2023-07-20T11:26:57;100028.41;;;21.90;71.40
33506;BME280;19843;51.040;13.782;2023-07-20T11:29:26;100029.91;;;20.96;76.37
33506;BME280;19843;51.040;13.782;2023-07-20T11:32:00;100028.19;;;21.47;71.73
33506;BME280;19843;51.040;13.782;2023-07-20T11:34:32;100030.69;;;21.41;73.93
33506;BME280;19843;51.040;13.782;2023-07-20T11:37:00;100037.16;;;21.42;74.01
33506;BME280;19843;51.040;13.782;2023-07-20T11:39:31;100030.03;;;21.23;73.24
33506;BME280;19843;51.040;13.782;2023-07-20T11:41:59;100033.28;;;21.21;78.54
33506;BME280;19843;51.040;13.782;2023-07-20T11:44:28;100031.13;;;21.36;75.58
33506;BME280;19843;51.040;13.782;2023-07-20T11:47:00;100028.31;;;20.95;76.24
33506;BME280;19843;51.040;13.782;2023-07-20T11:49:30;100030.41;;;20.35;73.83
33506;BME280;19843;51.040;13.782;2023-07-20T11:52:00;100023.97;;;21.59;73.07
33506;BME280;19843;51.040;13.782;2023-07-20T11:54:28;100016.22;;;21.25;71.83
33506;BME280;19843;51.040;13.782;2023-07-20T11:56:56;100021.50;;;22.22;70.05
33506;BME280;19843;51.040;13.782;2023-07-20T11:59:31;100025.94;;;21.92;69.43
33506;BME280;19843;51.040;13.782;2023-07-20T12:02:00;100028.31;;;22.28;72.04
33506;BME280;19843;51.040;13.782;2023-07-20T12:04:31;100020.78;;;21.84;68.86
33506;BME280;19843;51.040;13.782;2023-07-20T12:07:07;100025.25;;;22.42;69.04
33506;BME280;19843;51.040;13.782;2023-07-20T12:09:34;100021.41;;;21.98;69.69
33506;BME280;19843;51.040;13.782;2023-07-20T12:12:18;100018.84;;;22.35;68.16
33506;BME280;19843;51.040;13.782;2023-07-20T12:14:47;100020.94;;;21.42;71.62
33506;BME280;19843;51.040;13.782;2023-07-20T12:17:16;100031.31;;;21.56;70.82
33506;BME280;19843;51.040;13.782;2023-07-20T12:19:44;100032.25;;;21.05;74.77
33506;BME280;19843;51.040;13.782;2023-07-20T12:22:13;100029.41;;;21.08;75.57
33506;BME280;19843;51.040;13.782;2023-07-20T12:24:42;100033.56;;;20.52;76.01
33506;BME280;19843;51.040;13.782;2023-07-20T12:27:13;100037.75;;;20.29;76.95
33506;BME280;19843;51.040;13.782;2023-07-20T12:29:40;100043.41;;;20.33;81.65
33506;BME280;19843;51.040;13.782;2023-07-20T12:32:09;100040.84;;;19.90;84.12
33506;BME280;19843;51.040;13.782;2023-07-20T12:34:38;100037.22;;;20.49;83.22
33506;BME280;19843;51.040;13.782;2023-07-20T12:37:06;100044.22;;;19.45;88.28
33506;BME280;19843;51.040;13.782;2023-07-20T12:39:36;100054.47;;;20.72;84.56
33506;BME280;19843;51.040;13.782;2023-07-20T12:42:04;100052.59;;;21.00;83.21
33506;BME280;19843;51.040;13.782;2023-07-20T12:44:32;100053.91;;;20.88;84.31
33506;BME280;19843;51.040;13.782;2023-07-20T12:46:59;100065.31;;;19.37;92.67
33506;BME280;19843;51.040;13.782;2023-07-20T12:49:28;100060.09;;;20.16;85.95
33506;BME280;19843;51.040;13.782;2023-07-20T12:52:00;100074.94;;;19.54;87.80
33506;BME280;19843;51.040;13.782;2023-07-20T12:54:28;100071.34;;;19.43;86.71
33506;BME280;19843;51.040;13.782;2023-07-20T12:56:57;100077.09;;;20.16;85.42